ADDS METAR Data INFO
IDs: Format: Raw Decoded Include TAF

Data at: 0302 UTC 21 Oct 2017

KPHF 210254Z AUTO 00000KT 1/4SM FG VV003 13/13 A3025 RMK AO2 SLP242 T01330128 53012
KPHF 210237Z 00000KT 10SM CLR 13/13 A3024 RMK AO2 T01330128
KPHF 210230Z 00000KT 1/4SM FG VV003 13/13 A3024 RMK AO2 T01330128
KPHF 210223Z 00000KT 1SM BR VV003 13/13 A3024 RMK AO2 T01280128
KPHF 210214Z 00000KT 2SM BR CLR 14/13 A3024 RMK AO2 VIS 1V4 T01390133
KPHF 210158Z 00000KT 3/4SM BR CLR 13/12 A3023 RMK AO2 T01330122
KPHF 210154Z 00000KT 2SM BR CLR 13/12 A3023 RMK AO2 SLP237 T01280122
KPHF 210146Z 00000KT 3SM BR CLR 14/13 A3023 RMK AO2 T01390128
KPHF 210139Z 00000KT 2 1/2SM BR CLR 14/13 A3023 RMK AO2 T01440133
KPHF 210107Z 00000KT 3SM BR CLR 14/13 A3022 RMK AO2 T01390133
KPHF 210102Z 00000KT 1 3/4SM BR CLR 14/13 A3022 RMK AO2 VIS 3/4V5 T01390128
KPHF 210054Z 00000KT 2 1/2SM BR CLR 14/13 A3022 RMK AO2 SLP232 T01390133
KPHF 202354Z 00000KT 10SM CLR 16/14 A3021 RMK AO2 SLP230 T01560144 10244 20156 53011
KPHF 202254Z 07003KT 10SM CLR 17/15 A3020 RMK AO2 SLP224 T01720150
KPHF 202154Z 21004KT 10SM CLR 21/13 A3018 RMK AO2 SLP220 T02110128
KPHF 202054Z VRB04KT 10SM CLR 23/13 A3018 RMK AO2 SLP218 T02330133 56009
KPHF 201954Z 07003KT 10SM CLR 24/13 A3019 RMK AO2 SLP221 T02390128
KPHF 201854Z 09005KT 10SM CLR 24/12 A3019 RMK AO2 SLP223 T02390122
KPHF 201754Z VRB04KT 10SM CLR 24/12 A3021 RMK AO2 SLP228 60000 T02390117 10244 20094 58014
KPHF 201654Z 04005KT 10SM CLR 24/12 A3023 RMK AO2 RAB02E20 SLP236 P0000 T02390117
KPHF 201554Z 01006KT 10SM CLR 23/12 A3025 RMK AO2 RAB1459E15 SLP241 P0000 T02280117
KPHF 201454Z 04008KT 10SM CLR 22/11 A3025 RMK AO2 SLP242 T02170111 50010
KPHF 201354Z 00000KT 10SM CLR 19/13 A3025 RMK AO2 SLP243 T01890133
KPHF 201254Z 00000KT 10SM CLR 14/12 A3024 RMK AO2 SLP239 T01440117
KPHF 201154Z 00000KT 10SM CLR 09/08 A3022 RMK AO2 SLP232 T00940083 10106 20078 53014
KPHF 201124Z 00000KT 10SM FEW002 09/08 A3021 RMK AO2 T00940083
KPHF 201054Z 00000KT 10SM CLR 08/08 A3021 RMK AO2 SLP228 T00830078
KPHF 200954Z 00000KT 10SM CLR 09/09 A3019 RMK AO2 SLP223 T00940089
KPHF 200926Z AUTO 00000KT 10SM CLR 10/09 A3018 RMK AO2 T01000094
KPHF 200907Z AUTO 00000KT 2 1/2SM BR CLR 10/09 A3018 RMK AO2 T01000094
KPHF 200854Z AUTO 00000KT 4SM BR CLR 09/09 A3018 RMK AO2 SLP219 T00940089 55001
KPHF 200845Z AUTO 00000KT 6SM BR CLR 09/08 A3018 RMK AO2 T00940083
KPHF 200836Z AUTO 00000KT 2SM BR CLR 10/09 A3017 RMK AO2 T01000094
KPHF 200754Z AUTO 00000KT 9SM CLR 09/09 A3017 RMK AO2 SLP215 T00940089
KPHF 200654Z AUTO 00000KT 10SM CLR 09/08 A3018 RMK AO2 SLP217 T00940083
KPHF 200639Z AUTO 26004KT 3SM BR CLR 10/09 A3018 RMK AO2 T01000094
KPHF 200632Z AUTO 00000KT 1 3/4SM BR CLR 09/09 A3018 RMK AO2 VIS 1V3 T00940089
KPHF 200554Z AUTO 00000KT 6SM BR CLR 09/08 A3018 RMK AO2 SLP220 T00940083 10144 20094 58001
KPHF 200551Z AUTO 00000KT 2 1/2SM BR CLR 09/09 A3018 RMK AO2
KPHF 200530Z AUTO 00000KT 1/2SM FG CLR 10/09 A3018 RMK AO2 T01000094
KPHF 200519Z AUTO 00000KT 1/4SM FG CLR 10/09 A3018 RMK AO2 T01000089
KPHF 200454Z AUTO 00000KT 1/4SM FG VV002 10/09 A3019 RMK AO2 SLP221 T01000089 402330067
KPHF 200419Z AUTO 00000KT 1/4SM FG VV002 11/10 A3019 RMK AO2 T01110100
KPHF 200414Z AUTO 00000KT 1SM BR VV003 10/09 A3019 RMK AO2 T01000094
KPHF 200406Z AUTO 00000KT 2 1/2SM BR FEW002 11/10 A3019 RMK AO2 T01060100
KPHF 200354Z AUTO 00000KT 1/2SM FG VV003 10/09 A3019 RMK AO2 VIS M1/4V5 SLP222 T01000089
KPHF 200351Z AUTO 00000KT 1 3/4SM BR CLR 09/09 A3019 RMK AO2 VIS 1/2V5
KPHF 200325Z AUTO 00000KT 4SM BR CLR 11/10 A3019 RMK AO2 T01110100
KPHF 200321Z AUTO 00000KT 1SM BR CLR 11/10 A3018 RMK AO2 T01110100
KPHF 200315Z AUTO 00000KT 1/4SM FG CLR 11/10 A3018 RMK AO2 T01060100
KPHF 200254Z AUTO 00000KT 1/2SM FG CLR 11/11 A3019 RMK AO2 SLP221 T01110106 52000
KPHF 200219Z 00000KT 1/2SM FG CLR 12/11 A3019 RMK AO2 T01170111
KPHF 200210Z 00000KT 1 3/4SM BR CLR 12/11 A3019 RMK AO2 T01170106
KPHF 200206Z 00000KT 4SM BR CLR 12/11 A3019 RMK AO2 T01220111
KPHF 200154Z 00000KT 1 1/2SM BR CLR 12/11 A3019 RMK AO2 SLP222 T01170111
KPHF 200054Z 00000KT 10SM CLR 13/12 A3018 RMK AO2 SLP220 T01280117
KPHF 192354Z 00000KT 10SM CLR 14/13 A3019 RMK AO2 RAB2255E05 SLP221 P0000 60000 T01440128 10233 20139 53001
KPHF 192254Z 00000KT 10SM CLR 16/13 A3018 RMK AO2 RAB05E34 SLP219 P0000 T01610133
KPHF 192154Z 23005KT 10SM CLR 21/12 A3018 RMK AO2 SLP217 T02060122
KPHF 192054Z 24007KT 10SM CLR 23/11 A3018 RMK AO2 SLP219 T02280111 56018
KPHF 191954Z 25007KT 10SM CLR 23/11 A3020 RMK AO2 SLP225 T02330111
KPHF 191854Z 23007KT 10SM CLR 23/12 A3021 RMK AO2 SLP229 T02280122
KPHF 191754Z 22007KT 10SM CLR 22/12 A3023 RMK AO2 SLP237 T02220122 10222 20089 58024
KPHF 191654Z 27008KT 10SM CLR 22/11 A3026 RMK AO2 SLP247 T02170111
KPHF 191554Z 26006KT 10SM CLR 21/11 A3029 RMK AO2 SLP257 T02060106